Time;durP1;ratioP1;P1;durP2;ratioP2;P2;SDS_P1;SDS_P2;PMS_P1;PMS_P2;Temp;Humidity;BMP_temperature;BMP_pressure;BME280_temperature;BME280_humidity;BME280_pressure;Samples;Min_cycle;Max_cycle;Signal;HPM_P1;HPM_P2
2022/09/03 00:00:19;;;;;;;2.10;2.00;;;15.50;99.90;;;;;;4886950;29;20107;-81
2022/09/03 00:02:56;;;;;;;0.10;0.10;;;13.80;99.90;;;;;;4887635;29;20112;-88
2022/09/03 00:05:47;;;;;;;2.30;2.17;;;15.40;99.90;;;;;;4886685;29;20048;-78
2022/09/03 00:08:22;;;;;;;0.10;0.10;;;15.40;99.90;;;;;;4887572;29;20339;-85
2022/09/03 00:10:58;;;;;;;0.75;0.75;;;15.50;99.90;;;;;;4869486;29;20035;-81
2022/09/03 00:13:33;;;;;;;0.10;0.10;;;15.40;99.90;;;;;;4886934;29;20319;-80
2022/09/03 00:16:02;;;;;;;0.10;0.10;;;15.40;99.90;;;;;;4886588;29;20429;-77
2022/09/03 00:18:32;;;;;;;0.10;0.10;;;15.40;99.90;;;;;;4886499;29;20515;-83
2022/09/03 00:21:07;;;;;;;0.17;0.17;;;15.40;99.90;;;;;;4887082;29;20028;-83
2022/09/03 00:23:39;;;;;;;0.30;0.30;;;15.40;99.90;;;;;;4870448;29;20335;-78
2022/09/03 00:26:13;;;;;;;0.10;0.10;;;15.40;99.90;;;;;;4869427;29;20111;-80
2022/09/03 00:28:59;;;;;;;0.10;0.10;;;15.30;99.90;;;;;;4886540;29;20040;-82
2022/09/03 00:31:37;;;;;;;0.10;0.10;;;17.80;99.90;;;;;;4885702;29;20037;-84
2022/09/03 00:34:31;;;;;;;0.20;0.20;;;15.30;99.90;;;;;;4869425;29;20044;-78
2022/09/03 00:36:57;;;;;;;0.10;0.10;;;15.30;99.90;;;;;;4869305;29;20055;-81
2022/09/03 00:39:25;;;;;;;0.65;0.65;;;15.30;99.90;;;;;;4886880;29;20041;-82
2022/09/03 00:42:14;;;;;;;0.10;0.10;;;15.30;99.90;;;;;;4885927;29;20029;-84
2022/09/03 00:44:48;;;;;;;0.10;0.10;;;15.40;99.90;;;;;;4885466;29;20728;-86
2022/09/03 00:47:34;;;;;;;4.68;4.38;;;15.40;99.90;;;;;;4868682;29;20665;-81
2022/09/03 00:50:18;;;;;;;0.10;0.10;;;15.40;99.90;;;;;;4886081;29;20037;-81
2022/09/03 00:52:49;;;;;;;0.10;0.10;;;15.40;99.90;;;;;;4869224;29;20028;-82
2022/09/03 00:55:57;;;;;;;0.10;0.10;;;15.40;99.90;;;;;;4885393;29;20040;-89
2022/09/03 00:58:32;;;;;;;0.75;0.75;;;15.30;99.90;;;;;;4886300;29;20021;-87
2022/09/03 01:01:03;;;;;;;0.65;0.65;;;15.30;99.90;;;;;;4887310;29;20212;-84
2022/09/03 01:03:50;;;;;;;0.10;0.10;;;15.30;99.90;;;;;;4868090;29;20048;-87
2022/09/03 01:06:29;;;;;;;0.20;0.20;;;15.30;99.90;;;;;;4889118;29;20055;-81
2022/09/03 01:09:04;;;;;;;0.50;0.50;;;15.30;99.90;;;;;;4888773;29;20088;-81
2022/09/03 01:11:32;;;;;;;0.10;0.10;;;15.30;99.90;;;;;;4886272;29;20056;-77
2022/09/03 01:14:13;;;;;;;0.10;0.10;;;15.30;99.90;;;;;;4887303;29;20040;-82
2022/09/03 01:17:03;;;;;;;0.10;0.10;;;15.30;99.90;;;;;;4886556;29;20208;-77
2022/09/03 01:20:02;;;;;;;0.30;0.30;;;15.30;99.90;;;;;;4888607;29;20247;-78
2022/09/03 01:22:49;;;;;;;0.10;0.10;;;15.30;99.90;;;;;;4868469;29;20041;-88
2022/09/03 01:25:44;;;;;;;0.22;0.22;;;16.00;99.90;;;;;;4885523;29;20112;-76
2022/09/03 01:28:22;;;;;;;0.10;0.10;;;15.30;99.90;;;;;;4870824;29;20037;-80
2022/09/03 01:31:25;;;;;;;0.10;0.10;;;15.30;99.90;;;;;;4867462;29;20535;-79
2022/09/03 01:34:14;;;;;;;0.10;0.10;;;15.30;99.90;;;;;;4810519;29;20050;-78
2022/09/03 01:37:05;;;;;;;0.17;0.17;;;15.30;99.90;;;;;;4813404;29;20091;-78
2022/09/03 01:39:51;;;;;;;0.10;0.10;;;15.30;99.90;;;;;;4814461;29;20065;-86
2022/09/03 01:42:29;;;;;;;0.10;0.10;;;15.30;99.90;;;;;;4781446;29;20488;-81
2022/09/03 01:45:15;;;;;;;0.13;0.13;;;15.30;99.90;;;;;;4796060;29;20591;-76
2022/09/03 01:47:55;;;;;;;0.10;0.10;;;15.30;99.90;;;;;;4794667;29;20071;-76
2022/09/03 01:50:35;;;;;;;0.10;0.10;;;15.20;99.90;;;;;;4791460;29;20254;-83
2022/09/03 01:53:19;;;;;;;0.95;0.93;;;15.30;99.90;;;;;;4781026;29;20058;-76
2022/09/03 01:56:22;;;;;;;0.10;0.10;;;15.50;99.90;;;;;;4797262;29;20027;-76
2022/09/03 01:59:09;;;;;;;1.70;1.60;;;15.50;99.90;;;;;;4803407;29;20076;-79
2022/09/03 02:02:02;;;;;;;0.10;0.10;;;15.20;99.90;;;;;;4798520;29;20023;-77
2022/09/03 02:04:28;;;;;;;0.10;0.10;;;15.20;99.90;;;;;;4798016;29;20051;-77
2022/09/03 02:06:59;;;;;;;0.10;0.10;;;15.40;99.90;;;;;;4797036;29;20038;-86
2022/09/03 02:09:25;;;;;;;1.00;1.00;;;15.30;99.90;;;;;;4789123;29;20076;-80
2022/09/03 02:11:59;;;;;;;0.10;0.10;;;15.10;99.90;;;;;;4818824;29;20022;-76
2022/09/03 02:14:26;;;;;;;0.10;0.10;;;15.10;99.90;;;;;;4833355;29;20098;-76
2022/09/03 02:16:54;;;;;;;0.10;0.10;;;15.40;99.90;;;;;;4832208;29;20062;-76
2022/09/03 02:19:20;;;;;;;0.10;0.10;;;;;;;;;;4850022;29;20112;-79
2022/09/03 02:21:51;;;;;;;0.10;0.10;;;15.10;99.90;;;;;;4854610;29;20381;-76
2022/09/03 02:24:17;;;;;;;5.05;3.92;;;15.10;99.90;;;;;;4868472;29;20024;-80
2022/09/03 02:26:43;;;;;;;1.77;1.70;;;15.10;99.90;;;;;;4869008;29;20726;-82
2022/09/03 02:29:09;;;;;;;0.10;0.10;;;15.00;99.90;;;;;;4850817;29;20067;-76
2022/09/03 02:31:35;;;;;;;0.10;0.10;;;15.10;99.90;;;;;;4868021;29;20173;-80
2022/09/03 02:34:01;;;;;;;0.10;0.10;;;15.60;99.90;;;;;;4868789;29;20072;-79
2022/09/03 02:36:32;;;;;;;0.10;0.10;;;15.10;99.90;;;;;;4868721;29;20588;-83
2022/09/03 02:38:58;;;;;;;0.10;0.10;;;15.10;99.90;;;;;;4866990;29;20033;-77
2022/09/03 02:41:26;;;;;;;0.10;0.10;;;15.10;99.90;;;;;;4867579;29;20022;-81
2022/09/03 02:44:17;;;;;;;0.10;0.10;;;15.20;99.90;;;;;;4868416;29;20028;-79
2022/09/03 02:47:01;;;;;;;0.10;0.10;;;15.20;99.90;;;;;;4865190;29;20067;-77
2022/09/03 02:49:28;;;;;;;2.05;1.95;;;15.20;99.90;;;;;;4868035;29;20025;-83
2022/09/03 02:52:11;;;;;;;0.10;0.10;;;15.30;99.90;;;;;;4867101;29;20029;-81
2022/09/03 02:54:40;;;;;;;0.10;0.10;;;15.20;99.90;;;;;;4866513;29;20061;-78
2022/09/03 02:57:14;;;;;;;0.10;0.10;;;15.20;99.90;;;;;;4866284;29;20033;-82
2022/09/03 02:59:43;;;;;;;0.10;0.10;;;15.30;99.90;;;;;;4865046;29;20025;-80
2022/09/03 03:02:10;;;;;;;0.10;0.10;;;15.20;99.90;;;;;;4865640;29;20463;-83
2022/09/03 03:04:37;;;;;;;0.10;0.10;;;15.20;99.90;;;;;;4866425;29;20029;-81
2022/09/03 03:07:03;;;;;;;0.10;0.10;;;15.30;99.90;;;;;;4865760;29;20379;-85
2022/09/03 03:09:29;;;;;;;0.20;0.20;;;15.20;99.90;;;;;;4865590;29;20220;-78
2022/09/03 03:11:55;;;;;;;0.10;0.10;;;14.90;99.90;;;;;;4849308;29;20030;-82
2022/09/03 03:14:21;;;;;;;0.10;0.10;;;15.30;99.90;;;;;;4848539;29;20672;-78
2022/09/03 03:16:49;;;;;;;0.10;0.10;;;15.30;99.90;;;;;;4865342;29;20062;-78
2022/09/03 03:19:15;;;;;;;1.55;1.55;;;15.30;99.90;;;;;;4848633;29;20397;-85
2022/09/03 03:21:41;;;;;;;0.10;0.10;;;;;;;;;;4852548;29;20278;-78
2022/09/03 03:24:07;;;;;;;6.13;5.80;;;15.30;99.90;;;;;;4868361;29;20025;-80
2022/09/03 03:26:33;;;;;;;0.10;0.10;;;16.10;99.90;;;;;;4868260;29;20025;-77
2022/09/03 03:29:03;;;;;;;0.10;0.10;;;15.30;99.90;;;;;;4852396;29;20117;-79
2022/09/03 03:31:30;;;;;;;0.10;0.10;;;15.30;99.90;;;;;;4851967;29;20111;-89
2022/09/03 03:33:59;;;;;;;0.10;0.10;;;15.30;99.90;;;;;;4851779;29;20037;-77
2022/09/03 03:36:28;;;;;;;0.85;0.85;;;15.30;99.90;;;;;;4868665;29;20021;-78
2022/09/03 03:38:56;;;;;;;0.73;0.73;;;15.30;99.90;;;;;;4868857;29;20037;-87
2022/09/03 03:41:27;;;;;;;0.38;0.38;;;15.30;99.90;;;;;;4869136;29;20044;-80
2022/09/03 03:43:55;;;;;;;0.10;0.10;;;15.30;99.90;;;;;;4869078;29;20021;-89
2022/09/03 03:46:22;;;;;;;14.70;9.23;;;15.40;99.90;;;;;;4870773;29;20112;-75
2022/09/03 03:48:49;;;;;;;1.45;1.35;;;15.40;99.90;;;;;;4887843;29;20028;-77
2022/09/03 03:51:15;;;;;;;0.40;0.40;;;15.40;99.90;;;;;;4872166;29;20016;-86
2022/09/03 03:53:41;;;;;;;8.02;7.25;;;18.40;99.90;;;;;;4886684;29;20060;-83
2022/09/03 03:56:10;;;;;;;0.20;0.20;;;15.40;99.90;;;;;;4886948;29;20028;-77
2022/09/03 03:58:36;;;;;;;0.10;0.10;;;15.40;99.90;;;;;;4887332;29;20562;-89
2022/09/03 04:01:10;;;;;;;0.20;0.20;;;15.40;99.90;;;;;;4870356;29;20029;-84
2022/09/03 04:03:37;;;;;;;1.70;1.45;;;12.60;99.90;;;;;;4888047;29;20024;-78
2022/09/03 04:06:04;;;;;;;0.10;0.10;;;15.40;99.90;;;;;;4869265;29;20339;-87
2022/09/03 04:08:33;;;;;;;0.10;0.10;;;12.60;99.90;;;;;;4886228;29;20067;-80
2022/09/03 04:11:00;;;;;;;0.10;0.10;;;15.40;99.90;;;;;;4886468;29;20033;-76
2022/09/03 04:13:33;;;;;;;0.10;0.10;;;15.40;99.90;;;;;;4885895;29;20041;-82
2022/09/03 04:16:03;;;;;;;0.32;0.32;;;15.40;99.90;;;;;;4886428;29;20035;-79
2022/09/03 04:18:30;;;;;;;0.10;0.10;;;15.40;99.90;;;;;;4869191;29;20116;-85
2022/09/03 04:21:03;;;;;;;0.10;0.10;;;16.10;99.90;;;;;;4886288;29;20078;-76
2022/09/03 04:23:30;;;;;;;0.10;0.10;;;15.40;99.90;;;;;;4868976;29;20060;-84
2022/09/03 04:25:56;;;;;;;0.10;0.10;;;15.40;99.90;;;;;;4886436;29;20311;-85
2022/09/03 04:28:22;;;;;;;1.00;1.00;;;15.40;99.90;;;;;;4869233;29;20119;-78
2022/09/03 04:30:48;;;;;;;0.10;0.10;;;15.30;99.90;;;;;;4885114;29;20103;-81
2022/09/03 04:33:13;;;;;;;0.10;0.10;;;15.30;99.90;;;;;;4885970;29;20037;-79
2022/09/03 04:35:40;;;;;;;0.45;0.45;;;15.40;99.90;;;;;;4885849;29;20039;-79
2022/09/03 04:38:07;;;;;;;0.10;0.10;;;15.40;99.90;;;;;;4886117;29;20055;-90
2022/09/03 04:40:32;;;;;;;0.10;0.10;;;15.40;99.90;;;;;;4885950;29;20039;-89
2022/09/03 04:42:59;;;;;;;0.10;0.10;;;15.40;99.90;;;;;;4868895;29;20115;-82
2022/09/03 04:45:27;;;;;;;0.10;0.10;;;15.40;99.90;;;;;;4868766;29;20035;-77
2022/09/03 04:48:03;;;;;;;0.73;0.73;;;15.40;99.90;;;;;;4885669;29;20250;-83
2022/09/03 04:50:31;;;;;;;0.10;0.10;;;15.40;99.90;;;;;;4885756;29;20095;-77
2022/09/03 04:53:02;;;;;;;0.10;0.10;;;15.40;99.90;;;;;;4869049;29;20485;-77
2022/09/03 04:55:33;;;;;;;0.10;0.10;;;15.40;99.90;;;;;;4890318;29;20343;-78
2022/09/03 04:57:59;;;;;;;0.10;0.10;;;15.40;99.90;;;;;;4895498;29;20029;-76
2022/09/03 05:00:26;;;;;;;14.90;8.73;;;15.40;99.90;;;;;;4896872;29;20239;-80
2022/09/03 05:02:52;;;;;;;0.10;0.10;;;15.40;99.90;;;;;;4892832;29;20468;-78
2022/09/03 05:05:18;;;;;;;0.10;0.10;;;15.40;99.90;;;;;;4894445;29;20029;-79
2022/09/03 05:07:44;;;;;;;0.50;0.50;;;15.40;99.90;;;;;;4894533;29;20017;-79
2022/09/03 05:10:15;;;;;;;0.10;0.10;;;15.40;99.90;;;;;;4892694;29;20398;-78
2022/09/03 05:12:41;;;;;;;0.75;0.75;;;12.20;99.90;;;;;;4891082;29;20535;-81
2022/09/03 05:15:07;;;;;;;0.10;0.10;;;15.40;99.90;;;;;;4888612;29;20520;-79
2022/09/03 05:17:33;;;;;;;0.10;0.10;;;14.60;99.90;;;;;;4871552;29;20067;-79
2022/09/03 05:19:59;;;;;;;0.80;0.80;;;14.10;99.90;;;;;;4888459;29;20052;-77
2022/09/03 05:22:25;;;;;;;0.10;0.10;;;15.50;99.90;;;;;;4889437;29;20112;-77
2022/09/03 05:24:51;;;;;;;0.30;0.30;;;15.50;99.90;;;;;;4890682;29;20628;-78
2022/09/03 05:27:19;;;;;;;0.05;0.05;;;15.60;99.90;;;;;;4893275;29;20027;-76
2022/09/03 05:29:45;;;;;;;0.40;0.40;;;15.60;99.90;;;;;;4874841;29;20028;-77
2022/09/03 05:32:12;;;;;;;0.10;0.10;;;15.70;99.90;;;;;;4874708;29;20064;-77
2022/09/03 05:34:38;;;;;;;0.10;0.10;;;15.60;99.90;;;;;;4892246;29;20037;-77
2022/09/03 05:37:04;;;;;;;0.10;0.10;;;15.70;99.90;;;;;;4875172;29;20033;-79
2022/09/03 05:39:31;;;;;;;1.00;1.00;;;15.80;99.90;;;;;;4890600;29;20044;-77
2022/09/03 05:41:57;;;;;;;0.10;0.10;;;15.80;99.90;;;;;;4890784;29;20072;-76
2022/09/03 05:44:23;;;;;;;0.30;0.30;;;15.90;99.90;;;;;;4890911;29;20028;-79
2022/09/03 05:46:54;;;;;;;1.13;1.13;;;15.90;99.90;;;;;;4892836;29;20056;-82
2022/09/03 05:49:20;;;;;;;0.10;0.10;;;15.90;99.90;;;;;;4891042;29;20377;-82
2022/09/03 05:51:46;;;;;;;0.22;0.22;;;15.90;99.90;;;;;;4874973;29;20028;-77
2022/09/03 05:54:12;;;;;;;0.10;0.10;;;16.00;99.90;;;;;;4891608;29;20665;-78
2022/09/03 05:56:38;;;;;;;0.00;0.00;;;16.00;99.90;;;;;;4891326;29;20020;-75
2022/09/03 05:59:08;;;;;;;0.10;0.10;;;16.10;99.90;;;;;;4889905;29;20039;-76
2022/09/03 06:01:36;;;;;;;0.82;0.80;;;17.30;99.90;;;;;;4884186;29;20512;-80
2022/09/03 06:04:07;;;;;;;0.10;0.10;;;16.20;99.90;;;;;;4867121;29;20322;-80
2022/09/03 06:06:35;;;;;;;0.50;0.50;;;16.20;99.90;;;;;;4884422;29;20108;-82
2022/09/03 06:09:09;;;;;;;0.10;0.10;;;16.30;99.90;;;;;;4885522;29;20597;-84
2022/09/03 06:11:36;;;;;;;0.10;0.10;;;16.30;99.90;;;;;;4887119;29;20041;-85
2022/09/03 06:14:05;;;;;;;0.70;0.70;;;16.50;99.90;;;;;;4886593;29;20075;-83
2022/09/03 06:16:33;;;;;;;0.10;0.10;;;16.50;99.90;;;;;;4867971;29;20036;-76
2022/09/03 06:18:59;;;;;;;0.50;0.50;;;18.60;99.90;;;;;;4885457;29;20050;-82
2022/09/03 06:21:28;;;;;;;0.10;0.10;;;16.40;99.90;;;;;;4885723;29;20347;-77
2022/09/03 06:23:56;;;;;;;0.10;0.10;;;16.60;99.90;;;;;;4884608;29;20035;-77
2022/09/03 06:26:23;;;;;;;0.10;0.10;;;16.60;99.90;;;;;;4867848;29;20388;-84
2022/09/03 06:28:49;;;;;;;0.32;0.32;;;16.70;99.90;;;;;;4868235;29;20060;-79
2022/09/03 06:31:17;;;;;;;0.25;0.25;;;16.80;99.90;;;;;;4867641;29;20168;-84
2022/09/03 06:33:44;;;;;;;0.10;0.10;;;16.80;99.90;;;;;;4869214;29;20114;-78
2022/09/03 06:36:13;;;;;;;0.10;0.10;;;16.90;99.90;;;;;;4868103;29;20248;-83
2022/09/03 06:38:42;;;;;;;0.10;0.10;;;16.90;99.90;;;;;;4867630;29;20040;-81
2022/09/03 06:41:10;;;;;;;0.15;0.15;;;17.00;99.90;;;;;;4884296;29;20249;-79
2022/09/03 06:43:38;;;;;;;0.10;0.10;;;17.00;99.90;;;;;;4884566;29;20121;-85
2022/09/03 06:46:12;;;;;;;0.55;0.55;;;17.20;99.90;;;;;;4866877;29;20375;-77
2022/09/03 06:48:39;;;;;;;1.13;1.13;;;17.10;99.90;;;;;;4883669;29;20036;-77
2022/09/03 06:51:08;;;;;;;0.25;0.25;;;17.10;99.90;;;;;;4883908;29;20104;-80
2022/09/03 06:53:39;;;;;;;1.02;0.57;;;17.10;99.90;;;;;;4884916;29;20043;-77
2022/09/03 06:56:08;;;;;;;0.10;0.10;;;17.20;99.90;;;;;;4870323;29;20492;-80
2022/09/03 06:58:46;;;;;;;0.35;0.35;;;17.20;99.90;;;;;;4871956;29;20056;-76
2022/09/03 07:01:25;;;;;;;0.10;0.10;;;17.20;99.90;;;;;;4875498;29;20413;-85
2022/09/03 07:03:55;;;;;;;1.00;1.00;;;17.20;99.90;;;;;;4898884;29;20389;-88
2022/09/03 07:06:25;;;;;;;0.60;0.60;;;17.20;99.90;;;;;;4899513;29;20476;-83
2022/09/03 07:08:51;;;;;;;0.10;0.10;;;15.10;99.90;;;;;;4881145;29;20024;-83
2022/09/03 07:11:22;;;;;;;0.10;0.10;;;17.20;99.90;;;;;;4904949;29;20013;-74
2022/09/03 07:13:50;;;;;;;0.20;0.20;;;19.40;99.90;;;;;;4883504;29;20275;-90
2022/09/03 07:17:03;;;;;;;3.75;2.28;;;17.20;99.90;;;;;;4897415;29;20036;-79
2022/09/03 07:19:41;;;;;;;4.57;4.38;;;17.30;99.90;;;;;;4836294;29;20026;-81
2022/09/03 07:22:15;;;;;;;0.10;0.10;;;17.40;99.90;;;;;;4871254;29;20037;-79
2022/09/03 07:24:46;;;;;;;0.10;0.10;;;15.60;99.90;;;;;;4858896;29;20047;-89
2022/09/03 07:27:12;;;;;;;0.22;0.22;;;17.40;99.90;;;;;;4844384;29;20041;-92
2022/09/03 07:29:38;;;;;;;0.98;0.98;;;17.40;99.90;;;;;;4863728;29;20379;-77
2022/09/03 07:32:06;;;;;;;2.33;2.17;;;17.10;99.90;;;;;;4846836;29;20045;-83
2022/09/03 07:34:34;;;;;;;0.10;0.10;;;17.50;99.90;;;;;;4837168;29;20034;-80
2022/09/03 07:37:04;;;;;;;0.10;0.10;;;17.70;99.90;;;;;;4838652;29;20045;-79
2022/09/03 07:39:30;;;;;;;0.10;0.10;;;18.10;99.90;;;;;;4841191;29;20033;-80
2022/09/03 07:41:58;;;;;;;0.10;0.10;;;;;;;;;;4838886;29;20036;-86
2022/09/03 07:44:28;;;;;;;0.17;0.17;;;17.90;99.90;;;;;;4839356;29;20066;-81
2022/09/03 07:46:57;;;;;;;0.30;0.30;;;18.00;99.90;;;;;;4853406;29;20065;-79
2022/09/03 07:49:22;;;;;;;0.10;0.10;;;18.00;99.90;;;;;;4840979;29;20046;-89
2022/09/03 07:51:53;;;;;;;0.20;0.20;;;18.20;99.90;;;;;;4844251;29;20037;-92
2022/09/03 07:54:20;;;;;;;0.55;0.55;;;17.30;99.90;;;;;;4836815;29;20082;-96
2022/09/03 07:56:49;;;;;;;0.30;0.30;;;16.70;99.90;;;;;;4851699;29;20090;-95
2022/09/03 07:59:15;;;;;;;0.10;0.10;;;18.80;99.90;;;;;;4836355;29;20032;-92
2022/09/03 08:01:41;;;;;;;0.10;0.10;;;18.20;99.90;;;;;;4850739;29;20030;-87
2022/09/03 08:04:06;;;;;;;0.10;0.10;;;18.20;99.90;;;;;;4840720;29;20041;-92
2022/09/03 08:06:37;;;;;;;0.05;0.05;;;18.10;99.90;;;;;;4834988;29;20064;-77
2022/09/03 08:09:07;;;;;;;0.28;0.28;;;17.80;99.90;;;;;;4836124;29;20036;-77
2022/09/03 08:11:37;;;;;;;3.90;1.75;;;18.10;99.90;;;;;;4836369;29;20052;-85
2022/09/03 08:14:08;;;;;;;3.13;2.85;;;18.20;99.90;;;;;;4850232;29;20776;-78
2022/09/03 08:16:41;;;;;;;0.00;0.00;;;19.80;99.90;;;;;;4838633;29;20097;-78
2022/09/03 08:19:08;;;;;;;0.00;0.00;;;18.30;99.90;;;;;;4859208;29;20086;-78
2022/09/03 08:21:43;;;;;;;0.10;0.10;;;18.50;99.90;;;;;;4850191;29;20027;-79
2022/09/03 08:24:10;;;;;;;0.15;0.15;;;16.90;99.90;;;;;;4882374;29;20025;-89
2022/09/03 08:26:59;;;;;;;0.50;0.50;;;18.80;99.90;;;;;;4900603;29;20031;-75
2022/09/03 08:29:31;;;;;;;0.20;0.20;;;18.90;99.90;;;;;;4883084;29;20147;-81
2022/09/03 08:31:57;;;;;;;7.95;7.47;;;19.00;99.90;;;;;;4902643;29;20032;-77
2022/09/03 08:34:23;;;;;;;0.10;0.10;;;18.00;99.90;;;;;;4903321;29;20064;-79
2022/09/03 08:37:00;;;;;;;0.00;0.00;;;19.10;99.90;;;;;;4900535;29;20029;-81
2022/09/03 08:39:30;;;;;;;0.10;0.10;;;19.10;99.90;;;;;;4897955;29;20017;-79
2022/09/03 08:42:29;;;;;;;0.25;0.25;;;18.20;99.90;;;;;;4882717;29;20184;-77
2022/09/03 08:44:59;;;;;;;0.03;0.03;;;19.30;99.90;;;;;;4898254;29;20586;-89
2022/09/03 08:47:43;;;;;;;0.10;0.10;;;19.30;99.90;;;;;;4891410;29;20147;-84
2022/09/03 08:50:34;;;;;;;0.00;0.00;;;19.20;99.90;;;;;;4891291;29;20690;-77
2022/09/03 08:53:41;;;;;;;0.10;0.10;;;19.30;99.90;;;;;;4883221;29;20028;-90
2022/09/03 08:56:29;;;;;;;0.10;0.10;;;19.40;99.90;;;;;;4871764;29;20066;-77
2022/09/03 08:59:09;;;;;;;0.10;0.10;;;17.70;99.90;;;;;;4862925;29;20088;-79
2022/09/03 09:01:34;;;;;;;0.30;0.30;;;19.50;99.90;;;;;;4879337;29;20115;-81
2022/09/03 09:04:23;;;;;;;0.10;0.10;;;19.30;99.90;;;;;;4900420;29;20033;-82
2022/09/03 09:07:20;;;;;;;0.55;0.50;;;19.50;99.90;;;;;;4884674;29;20040;-82
2022/09/03 09:09:56;;;;;;;0.00;0.00;;;19.70;99.90;;;;;;4820534;29;20093;-77
2022/09/03 09:12:46;;;;;;;0.10;0.10;;;19.80;99.90;;;;;;4804970;29;20042;-78
2022/09/03 09:16:01;;;;;;;1.00;1.00;;;20.30;99.90;;;;;;4820810;29;20519;-86
2022/09/03 09:19:03;;;;;;;0.10;0.10;;;20.50;99.90;;;;;;4795047;29;20053;-85
2022/09/03 09:21:40;;;;;;;2.22;2.08;;;20.20;99.90;;;;;;4816180;29;20043;-77
2022/09/03 09:24:14;;;;;;;0.20;0.20;;;21.00;99.90;;;;;;4813680;29;20065;-85
2022/09/03 09:26:44;;;;;;;0.22;0.22;;;21.20;99.90;;;;;;4815185;29;20034;-79
2022/09/03 09:29:14;;;;;;;0.00;0.00;;;21.30;99.90;;;;;;4798592;29;20046;-81
2022/09/03 09:31:43;;;;;;;0.00;0.00;;;21.50;99.90;;;;;;4815702;29;20118;-78
2022/09/03 09:34:12;;;;;;;0.00;0.00;;;21.60;99.90;;;;;;4799900;29;20453;-78
2022/09/03 09:36:52;;;;;;;0.10;0.10;;;21.90;99.90;;;;;;4815868;29;20721;-81
2022/09/03 09:39:18;;;;;;;0.10;0.10;;;22.00;99.90;;;;;;4795677;29;20042;-80
2022/09/03 09:42:08;;;;;;;0.10;0.10;;;22.20;99.90;;;;;;4795720;29;20014;-83
2022/09/03 09:44:38;;;;;;;0.63;0.63;;;21.80;99.90;;;;;;4797180;29;20025;-77
2022/09/03 09:47:09;;;;;;;0.10;0.10;;;22.60;99.90;;;;;;4858625;29;20080;-76
2022/09/03 09:49:56;;;;;;;0.08;0.08;;;22.50;99.30;;;;;;4891302;29;20263;-79
2022/09/03 09:52:24;;;;;;;0.10;0.10;;;22.40;99.90;;;;;;4891970;29;20080;-84
2022/09/03 09:54:55;;;;;;;0.00;0.00;;;22.50;99.90;;;;;;4884036;29;20096;-79
2022/09/03 09:57:24;;;;;;;0.00;0.00;;;22.70;99.90;;;;;;4897703;29;20017;-81
2022/09/03 10:00:05;;;;;;;0.08;0.08;;;22.80;99.60;;;;;;4877869;29;20032;-87
2022/09/03 10:02:34;;;;;;;0.10;0.10;;;22.90;99.90;;;;;;4896355;29;20028;-88
2022/09/03 10:05:12;;;;;;;0.00;0.00;;;23.00;99.90;;;;;;4874335;29;20041;-77
2022/09/03 10:07:38;;;;;;;0.10;0.10;;;23.30;99.90;;;;;;4891582;29;20036;-77
2022/09/03 10:10:19;;;;;;;0.10;0.10;;;20.90;99.00;;;;;;4875079;29;20025;-78
2022/09/03 10:12:58;;;;;;;0.00;0.00;;;23.00;98.00;;;;;;4874368;29;20032;-80
2022/09/03 10:15:44;;;;;;;0.00;0.00;;;22.60;98.70;;;;;;4874766;29;20031;-80
2022/09/03 10:18:45;;;;;;;0.25;0.17;;;23.60;99.30;;;;;;4878980;29;20037;-79
2022/09/03 10:21:54;;;;;;;0.00;0.00;;;20.50;98.40;;;;;;4798226;29;20678;-86
2022/09/03 10:24:32;;;;;;;1.17;0.85;;;23.50;99.20;;;;;;4783052;29;20050;-77
2022/09/03 10:26:58;;;;;;;0.20;0.20;;;23.40;99.10;;;;;;4799323;29;20098;-78
2022/09/03 10:29:28;;;;;;;0.00;0.00;;;24.40;98.90;;;;;;4800871;29;20035;-77
2022/09/03 10:32:08;;;;;;;0.20;0.20;;;23.40;97.00;;;;;;4768964;29;20103;-83
2022/09/03 10:34:50;;;;;;;0.30;0.30;;;20.90;96.70;;;;;;4789896;29;20046;-78
2022/09/03 10:37:42;;;;;;;0.30;0.30;;;21.60;97.10;;;;;;4807210;29;20034;-79
2022/09/03 10:40:32;;;;;;;0.00;0.00;;;23.60;97.50;;;;;;4793147;29;20023;-81
2022/09/03 10:43:15;;;;;;;0.28;0.28;;;23.70;97.30;;;;;;4793578;29;20458;-78
2022/09/03 10:45:58;;;;;;;0.38;0.38;;;23.70;98.30;;;;;;4785872;29;20023;-80
2022/09/03 10:49:01;;;;;;;0.17;0.17;;;23.60;97.40;;;;;;4803355;29;20051;-79
2022/09/03 10:51:36;;;;;;;0.10;0.10;;;23.50;98.00;;;;;;4798552;29;20050;-82
2022/09/03 10:54:18;;;;;;;0.08;0.08;;;23.60;97.10;;;;;;4799111;29;20098;-77
2022/09/03 10:56:53;;;;;;;0.00;0.00;;;23.00;96.70;;;;;;4791992;29;20224;-78
2022/09/03 10:59:43;;;;;;;0.00;0.00;;;21.80;96.70;;;;;;4802855;29;20280;-79
2022/09/03 11:02:55;;;;;;;0.30;0.30;;;23.50;96.90;;;;;;4890044;29;20037;-79
2022/09/03 11:05:28;;;;;;;0.38;0.38;;;23.50;97.00;;;;;;4872371;29;20079;-76
2022/09/03 11:08:05;;;;;;;0.22;0.22;;;23.90;96.50;;;;;;4874981;29;20664;-78
2022/09/03 11:10:39;;;;;;;0.00;0.00;;;25.80;97.40;;;;;;4874779;29;20025;-81
2022/09/03 11:13:13;;;;;;;0.65;0.47;;;23.80;97.10;;;;;;4863459;29;20038;-91
2022/09/03 11:16:00;;;;;;;0.30;0.20;;;24.10;97.10;;;;;;4873378;29;20025;-84
2022/09/03 11:18:39;;;;;;;0.90;0.90;;;24.40;96.60;;;;;;4888358;29;20032;-81
2022/09/03 11:21:11;;;;;;;0.00;0.00;;;24.40;96.10;;;;;;4868712;29;20107;-80
2022/09/03 11:23:41;;;;;;;0.75;0.75;;;24.60;96.20;;;;;;4885788;29;20025;-83
2022/09/03 11:26:11;;;;;;;0.00;0.00;;;24.60;95.70;;;;;;4869404;29;20033;-86
2022/09/03 11:29:11;;;;;;;1.38;0.82;;;24.60;95.40;;;;;;4868960;29;20024;-88
2022/09/03 11:32:28;;;;;;;0.65;0.65;;;24.60;96.30;;;;;;4869420;29;20036;-80
2022/09/03 11:34:57;;;;;;;3.13;2.92;;;23.30;95.50;;;;;;4816774;29;20050;-77
2022/09/03 11:37:26;;;;;;;0.57;0.57;;;25.20;95.70;;;;;;4815169;29;20042;-81
2022/09/03 11:40:18;;;;;;;0.20;0.20;;;25.30;95.00;;;;;;4815971;29;20125;-77
2022/09/03 11:42:45;;;;;;;0.25;0.20;;;25.30;94.30;;;;;;4833059;29;20066;-90
2022/09/03 11:45:38;;;;;;;0.00;0.00;;;25.30;94.90;;;;;;4816862;29;20471;-80
2022/09/03 11:48:35;;;;;;;1.40;1.30;;;27.50;95.60;;;;;;4796785;29;20054;-87
2022/09/03 11:51:02;;;;;;;0.03;0.03;;;25.80;94.30;;;;;;4800141;29;20027;-87
2022/09/03 11:53:38;;;;;;;0.03;0.03;;;25.70;94.40;;;;;;4798632;29;20111;-82
2022/09/03 11:56:15;;;;;;;;;;;;;;;;;;;;;
2022/09/03 11:58:42;;;;;;;0.00;0.00;;;25.80;93.00;;;;;;4816655;29;20034;-76
2022/09/03 12:01:30;;;;;;;;;;;;;;;;;;;;;
2022/09/03 12:04:06;;;;;;;0.40;0.40;;;26.20;92.70;;;;;;4818472;29;20038;-81
2022/09/03 12:06:58;;;;;;;1.40;1.30;;;26.20;92.70;;;;;;4844608;29;20334;-93
2022/09/03 12:10:28;;;;;;;0.88;0.88;;;26.50;91.90;;;;;;4861909;29;20044;-85
2022/09/03 12:13:17;;;;;;;0.85;0.85;;;26.70;91.50;;;;;;4834871;29;20125;-84
2022/09/03 12:16:15;;;;;;;0.32;0.30;;;24.40;90.30;;;;;;4883684;23;20651;-78
2022/09/03 12:18:41;;;;;;;0.57;0.52;;;26.70;90.70;;;;;;4891082;29;20067;-81
2022/09/03 12:21:09;;;;;;;0.22;0.22;;;26.70;90.90;;;;;;4891679;29;20031;-80
2022/09/03 12:23:43;;;;;;;0.10;0.10;;;26.50;91.90;;;;;;4890448;29;20770;-78
2022/09/03 12:26:16;;;;;;;0.38;0.38;;;27.00;91.10;;;;;;4889713;29;20031;-88
2022/09/03 12:28:46;;;;;;;0.00;0.00;;;27.00;90.80;;;;;;4889026;29;20119;-80
2022/09/03 12:31:28;;;;;;;0.10;0.10;;;27.30;90.80;;;;;;4888971;29;20642;-81
2022/09/03 12:34:02;;;;;;;1.35;1.35;;;27.70;88.90;;;;;;4889082;29;20036;-88
2022/09/03 12:36:47;;;;;;;2.80;1.17;;;29.50;90.30;;;;;;4888850;29;20024;-86
2022/09/03 12:39:19;;;;;;;0.08;0.08;;;24.60;86.20;;;;;;4888494;29;20096;-78
2022/09/03 12:42:05;;;;;;;0.52;0.52;;;27.70;90.20;;;;;;4888889;29;20062;-91
2022/09/03 12:44:39;;;;;;;0.00;0.00;;;24.40;85.80;;;;;;4888899;29;20246;-85
2022/09/03 12:47:08;;;;;;;0.17;0.17;;;27.60;88.20;;;;;;4904486;29;20028;-80
2022/09/03 12:49:40;;;;;;;0.00;0.00;;;27.40;89.10;;;;;;4888752;29;20059;-77
2022/09/03 12:52:12;;;;;;;0.10;0.10;;;27.20;89.80;;;;;;4889319;29;20017;-77
2022/09/03 12:54:47;;;;;;;0.00;0.00;;;27.30;89.20;;;;;;4905751;29;20029;-78
2022/09/03 12:57:18;;;;;;;0.03;0.03;;;27.30;87.60;;;;;;4905084;29;20024;-78
2022/09/03 12:59:45;;;;;;;0.10;0.10;;;27.20;88.60;;;;;;4888170;29;20028;-80
2022/09/03 13:02:23;;;;;;;2.65;2.42;;;26.60;88.30;;;;;;4889179;29;20024;-76
2022/09/03 13:04:52;;;;;;;0.30;0.30;;;27.50;85.90;;;;;;4890424;29;20028;-79
2022/09/03 13:07:51;;;;;;;1.55;1.00;;;26.60;85.00;;;;;;4890702;29;20017;-82
2022/09/03 13:10:30;;;;;;;1.05;0.85;;;27.60;84.80;;;;;;4888382;29;20047;-85
2022/09/03 13:13:01;;;;;;;2.20;1.95;;;27.20;84.90;;;;;;4888900;29;20127;-82
2022/09/03 13:15:28;;;;;;;0.15;0.15;;;27.00;85.50;;;;;;4905367;29;20493;-87
2022/09/03 13:18:32;;;;;;;0.00;0.00;;;27.20;86.50;;;;;;4889884;29;20017;-87
2022/09/03 13:21:14;;;;;;;1.55;0.63;;;27.20;85.10;;;;;;4906962;29;20020;-86
2022/09/03 13:23:57;;;;;;;0.00;0.00;;;26.80;83.90;;;;;;4897184;29;20056;-78
2022/09/03 13:26:41;;;;;;;1.35;1.20;;;26.20;84.80;;;;;;4910883;29;20052;-89
2022/09/03 13:29:23;;;;;;;0.05;0.05;;;27.00;84.40;;;;;;4909682;29;20048;-85